createdAt,value
2022-12-18T00:01:42.821Z,4.90
2022-12-18T00:04:23.875Z,4.80
2022-12-18T00:06:52.055Z,4.80
2022-12-18T00:09:19.085Z,4.80
2022-12-18T00:11:45.992Z,4.80
2022-12-18T00:14:14.238Z,4.80
2022-12-18T00:16:43.775Z,5.00
2022-12-18T00:19:11.582Z,4.70
2022-12-18T00:21:38.476Z,5.00
2022-12-18T00:24:07.476Z,4.70
2022-12-18T00:26:35.518Z,4.70
2022-12-18T00:29:05.826Z,4.80
2022-12-18T00:31:34.973Z,4.80
2022-12-18T00:34:02.330Z,4.80
2022-12-18T00:36:31.679Z,4.80
2022-12-18T00:38:59.680Z,4.80
2022-12-18T00:41:45.627Z,4.80
2022-12-18T00:44:15.220Z,4.80
2022-12-18T00:46:43.394Z,4.80
2022-12-18T00:49:11.021Z,4.80
2022-12-18T00:51:39.804Z,4.80
2022-12-18T00:54:06.853Z,4.90
2022-12-18T00:56:45.709Z,4.80
2022-12-18T00:59:17.362Z,4.70
2022-12-18T01:01:44.824Z,4.70
2022-12-18T01:04:12.873Z,4.70
2022-12-18T01:06:39.873Z,4.70
2022-12-18T01:09:07.514Z,4.80
2022-12-18T01:11:37.096Z,4.70
2022-12-18T01:14:05.426Z,5.00
2022-12-18T01:16:32.417Z,4.80
2022-12-18T01:18:59.445Z,4.80
2022-12-18T01:21:28.175Z,4.50
2022-12-18T01:23:57.006Z,4.40
2022-12-18T01:26:25.979Z,4.50
2022-12-18T01:28:55.766Z,4.40
2022-12-18T01:31:41.948Z,4.70
2022-12-18T01:34:09.957Z,4.40
2022-12-18T01:36:39.908Z,4.40
2022-12-18T01:39:13.666Z,4.40
2022-12-18T01:42:02.013Z,4.40
2022-12-18T01:44:48.805Z,4.40
2022-12-18T01:47:39.956Z,4.50
2022-12-18T01:50:20.615Z,4.30
2022-12-18T01:53:06.628Z,4.30
2022-12-18T01:55:58.938Z,4.30
2022-12-18T01:58:50.397Z,4.30
2022-12-18T02:01:17.791Z,4.20
2022-12-18T02:03:46.227Z,4.30
2022-12-18T02:06:17.128Z,4.30
2022-12-18T02:09:15.883Z,4.30
2022-12-18T02:12:01.418Z,4.30
2022-12-18T02:17:35.704Z,4.30
2022-12-18T02:20:09.777Z,4.30
2022-12-18T02:22:51.596Z,4.30
2022-12-18T02:25:21.557Z,4.20
2022-12-18T02:27:51.643Z,4.20
2022-12-18T02:30:22.652Z,4.30
2022-12-18T02:32:53.214Z,4.70
2022-12-18T02:35:26.243Z,4.50
2022-12-18T02:37:56.594Z,4.30
2022-12-18T02:40:27.164Z,4.30
2022-12-18T02:42:54.550Z,4.30
2022-12-18T02:45:21.911Z,4.40
2022-12-18T02:47:51.423Z,4.30
2022-12-18T02:50:42.790Z,4.30
2022-12-18T02:53:23.989Z,4.20
2022-12-18T02:56:18.187Z,4.30
2022-12-18T02:58:57.391Z,4.20
2022-12-18T03:02:06.577Z,4.30
2022-12-18T03:05:11.651Z,4.10
2022-12-18T03:07:47.935Z,4.10
2022-12-18T03:10:20.843Z,4.10
2022-12-18T03:13:05.751Z,4.10
2022-12-18T03:15:38.274Z,4.30
2022-12-18T03:18:45.571Z,4.50
2022-12-18T03:21:15.713Z,4.10
2022-12-18T03:23:47.910Z,4.10
2022-12-18T03:26:20.010Z,4.10
2022-12-18T03:28:56.754Z,4.10
2022-12-18T03:31:29.473Z,4.10
2022-12-18T03:34:02.335Z,4.10
2022-12-18T03:36:38.988Z,4.40
2022-12-18T03:39:07.856Z,4.10
2022-12-18T03:42:10.770Z,4.20
2022-12-18T03:45:09.287Z,4.10
2022-12-18T03:48:02.503Z,4.10
2022-12-18T03:50:43.555Z,4.00
2022-12-18T03:53:18.347Z,4.00
2022-12-18T03:55:50.434Z,4.00
2022-12-18T03:58:20.362Z,4.40
2022-12-18T04:01:00.667Z,4.00
2022-12-18T04:03:30.833Z,4.00
2022-12-18T04:06:00.327Z,4.20
2022-12-18T04:08:29.303Z,3.90
2022-12-18T04:11:06.311Z,3.90
2022-12-18T04:13:39.798Z,3.90
2022-12-18T04:16:14.338Z,3.80
2022-12-18T04:18:43.739Z,3.80
2022-12-18T04:21:11.353Z,3.80
2022-12-18T04:23:38.885Z,4.20
2022-12-18T04:26:07.236Z,4.00
2022-12-18T04:28:53.208Z,3.70
2022-12-18T04:31:21.705Z,3.70
2022-12-18T04:33:48.939Z,3.60
2022-12-18T04:36:17.534Z,3.70
2022-12-18T04:38:45.483Z,3.60
2022-12-18T04:41:15.733Z,4.10
2022-12-18T04:43:44.861Z,4.00
2022-12-18T04:46:11.809Z,3.60
2022-12-18T04:48:39.950Z,3.60
2022-12-18T04:51:07.541Z,3.70
2022-12-18T04:53:34.705Z,3.50
2022-12-18T04:56:14.683Z,3.50
2022-12-18T04:58:43.347Z,3.50
2022-12-18T05:01:11.352Z,3.70
2022-12-18T05:03:39.845Z,3.40
2022-12-18T05:06:08.455Z,3.40
2022-12-18T05:08:35.522Z,3.80
2022-12-18T05:11:05.445Z,3.80
2022-12-18T05:13:33.620Z,3.40
2022-12-18T05:16:00.907Z,3.70
2022-12-18T05:18:28.089Z,3.40
2022-12-18T05:20:55.763Z,3.80
2022-12-18T05:23:24.890Z,3.60
2022-12-18T05:25:56.509Z,3.30
2022-12-18T05:28:25.090Z,3.40
2022-12-18T05:30:53.659Z,3.40
2022-12-18T05:33:23.226Z,3.40
2022-12-18T05:35:57.237Z,3.40
2022-12-18T05:38:25.770Z,3.40
2022-12-18T05:40:53.727Z,3.50
2022-12-18T05:43:24.337Z,3.90
2022-12-18T05:45:53.862Z,3.40
2022-12-18T05:48:21.562Z,3.70
2022-12-18T05:50:50.947Z,3.40
2022-12-18T05:53:20.300Z,3.70
2022-12-18T05:55:48.016Z,3.50
2022-12-18T05:58:16.102Z,3.60
2022-12-18T06:00:46.487Z,3.60
2022-12-18T06:03:14.395Z,3.60
2022-12-18T06:05:46.174Z,3.80
2022-12-18T06:08:14.283Z,3.50
2022-12-18T06:10:42.400Z,3.50
2022-12-18T06:13:09.548Z,3.50
2022-12-18T06:15:39.347Z,3.50
2022-12-18T06:18:06.478Z,3.40
2022-12-18T06:20:34.088Z,3.40
2022-12-18T06:23:01.733Z,3.80
2022-12-18T06:25:28.524Z,3.50
2022-12-18T06:27:56.231Z,3.80
2022-12-18T06:30:23.383Z,3.40
2022-12-18T06:32:56.362Z,3.40
2022-12-18T06:35:24.508Z,3.40
2022-12-18T06:37:51.773Z,3.50
2022-12-18T06:40:21.037Z,3.50
2022-12-18T06:42:47.954Z,3.80
2022-12-18T06:45:15.590Z,3.40
2022-12-18T06:47:42.506Z,3.40
2022-12-18T06:50:09.498Z,3.40
2022-12-18T06:52:37.699Z,3.50
2022-12-18T06:55:05.152Z,3.60
2022-12-18T06:57:32.075Z,3.50
2022-12-18T06:59:59.339Z,3.50
2022-12-18T07:02:26.534Z,3.40
2022-12-18T07:04:54.391Z,3.50
2022-12-18T07:07:21.170Z,3.50
2022-12-18T07:09:50.895Z,3.70
2022-12-18T07:12:18.394Z,3.80
2022-12-18T07:14:45.430Z,3.90
2022-12-18T07:17:12.325Z,3.50
2022-12-18T07:19:39.367Z,3.60
2022-12-18T07:22:06.220Z,3.60
2022-12-18T07:24:34.994Z,3.60
2022-12-18T07:27:02.846Z,3.50
2022-12-18T07:29:29.871Z,3.80
2022-12-18T07:31:56.824Z,3.90
2022-12-18T07:34:23.811Z,3.60
2022-12-18T07:36:50.662Z,3.60
2022-12-18T07:39:18.387Z,3.60
2022-12-18T07:42:05.183Z,3.70
2022-12-18T07:44:33.549Z,4.10
2022-12-18T07:47:00.492Z,3.60
2022-12-18T07:49:27.442Z,3.60
2022-12-18T07:51:57.185Z,3.70
2022-12-18T07:54:25.330Z,3.70
2022-12-18T07:56:52.984Z,4.10
2022-12-18T07:59:20.108Z,3.80
2022-12-18T08:01:47.029Z,3.90
2022-12-18T08:04:14.167Z,4.00
2022-12-18T08:06:44.832Z,4.10
2022-12-18T08:09:14.511Z,4.10
2022-12-18T08:11:41.354Z,4.10
2022-12-18T08:14:08.375Z,4.40
2022-12-18T08:16:35.359Z,4.20
2022-12-18T08:19:02.638Z,4.50
2022-12-18T08:21:31.704Z,4.60
2022-12-18T08:24:01.475Z,4.40
2022-12-18T08:26:31.289Z,4.40
2022-12-18T08:29:00.424Z,4.50
2022-12-18T08:31:30.843Z,4.50
2022-12-18T08:33:58.320Z,4.70
2022-12-18T08:36:25.638Z,4.70
2022-12-18T08:38:54.090Z,4.70
2022-12-18T08:41:22.014Z,5.00
2022-12-18T08:44:07.515Z,4.90
2022-12-18T08:46:38.510Z,4.90
2022-12-18T08:49:06.416Z,5.10
2022-12-18T08:51:34.030Z,5.40
2022-12-18T08:54:01.832Z,5.10
2022-12-18T08:56:31.014Z,5.40
2022-12-18T08:58:59.295Z,5.20
2022-12-18T09:01:26.380Z,5.30
2022-12-18T09:03:53.821Z,5.60
2022-12-18T09:06:22.599Z,5.50
2022-12-18T09:08:50.313Z,5.90
2022-12-18T09:11:26.938Z,5.60
2022-12-18T09:13:55.708Z,5.60
2022-12-18T09:16:28.794Z,5.70
2022-12-18T09:19:02.773Z,5.80
2022-12-18T09:21:33.930Z,6.10
2022-12-18T09:24:08.026Z,6.10
2022-12-18T09:26:37.680Z,5.90
2022-12-18T09:29:05.374Z,5.90
2022-12-18T09:31:32.563Z,6.10
2022-12-18T09:33:59.423Z,5.90
2022-12-18T09:36:27.146Z,5.80
2022-12-18T09:38:54.265Z,5.80
2022-12-18T09:41:56.933Z,5.80
2022-12-18T09:44:54.320Z,5.90
2022-12-18T09:47:34.675Z,5.90
2022-12-18T09:50:24.652Z,6.10
2022-12-18T09:52:57.476Z,6.00
2022-12-18T09:55:36.805Z,6.10
2022-12-18T09:58:20.188Z,6.20
2022-12-18T10:00:47.367Z,6.30
2022-12-18T10:03:16.195Z,6.30
2022-12-18T10:06:03.042Z,6.40
2022-12-18T10:08:52.618Z,6.30
2022-12-18T10:11:33.290Z,6.40
2022-12-18T10:14:15.284Z,6.40
2022-12-18T10:16:58.790Z,6.40
2022-12-18T10:19:36.161Z,6.50
2022-12-18T10:22:12.257Z,6.50
2022-12-18T10:24:53.376Z,6.70
2022-12-18T10:27:27.258Z,6.50
2022-12-18T10:29:55.137Z,6.60
2022-12-18T10:32:30.295Z,6.50
2022-12-18T10:35:00.900Z,6.60
2022-12-18T10:37:30.488Z,7.00
2022-12-18T10:40:22.303Z,6.80
2022-12-18T10:43:12.425Z,6.90
2022-12-18T10:45:39.226Z,7.10
2022-12-18T10:48:18.262Z,7.20
2022-12-18T10:51:10.429Z,7.20
2022-12-18T10:53:38.694Z,7.50
2022-12-18T10:56:07.536Z,7.30
2022-12-18T10:58:37.152Z,7.30
2022-12-18T11:01:13.205Z,7.40
2022-12-18T11:04:00.434Z,7.40
2022-12-18T11:06:33.094Z,7.60
2022-12-18T11:09:07.880Z,7.50
2022-12-18T11:11:39.537Z,7.50
2022-12-18T11:14:25.062Z,7.60
2022-12-18T11:19:43.615Z,7.60
2022-12-18T11:22:29.199Z,7.70
2022-12-18T11:25:31.256Z,7.60
2022-12-18T11:28:01.897Z,7.70
2022-12-18T11:30:36.738Z,8.10
2022-12-18T11:33:11.736Z,7.90
2022-12-18T11:35:50.910Z,7.80
2022-12-18T11:38:27.166Z,7.70
2022-12-18T11:41:01.638Z,7.60
2022-12-18T11:43:31.359Z,7.40
2022-12-18T11:46:07.480Z,7.30
2022-12-18T11:48:42.420Z,7.30
2022-12-18T11:51:21.980Z,7.20
2022-12-18T11:53:53.368Z,7.30
2022-12-18T11:56:36.696Z,7.20
2022-12-18T11:59:32.782Z,7.40
2022-12-18T12:02:35.207Z,7.10
2022-12-18T12:05:11.244Z,7.00
2022-12-18T12:08:07.219Z,6.90
2022-12-18T12:10:58.403Z,6.80
2022-12-18T12:13:59.178Z,6.90
2022-12-18T12:16:28.705Z,6.70
2022-12-18T12:18:59.581Z,6.70
2022-12-18T12:21:41.686Z,6.60
2022-12-18T12:24:23.123Z,6.50
2022-12-18T12:27:19.316Z,6.50
2022-12-18T12:30:04.956Z,6.50
2022-12-18T12:32:48.481Z,6.40
2022-12-18T12:35:44.311Z,6.40
2022-12-18T12:38:43.700Z,6.40
2022-12-18T12:41:38.788Z,6.40
2022-12-18T12:44:10.146Z,6.40
2022-12-18T12:46:42.896Z,6.30
2022-12-18T12:49:18.659Z,6.30
2022-12-18T12:52:06.094Z,6.30
2022-12-18T12:54:39.197Z,6.20
2022-12-18T12:57:31.807Z,6.20
2022-12-18T13:00:06.084Z,6.10
2022-12-18T13:02:55.457Z,6.10
2022-12-18T13:05:49.362Z,6.00
2022-12-18T13:08:51.679Z,6.00
2022-12-18T13:13:46.829Z,6.00
2022-12-18T13:14:47.249Z,6.00
2022-12-18T13:17:30.382Z,5.90
2022-12-18T13:20:11.865Z,5.90
2022-12-18T13:22:46.951Z,5.90
2022-12-18T13:25:42.933Z,5.90
2022-12-18T13:28:47.669Z,5.90
2022-12-18T13:31:30.982Z,5.90
2022-12-18T13:34:33.523Z,5.80
2022-12-18T13:37:38.649Z,5.80
2022-12-18T13:40:45.839Z,5.80
2022-12-18T13:43:21.150Z,5.90
2022-12-18T13:45:50.835Z,5.80
2022-12-18T13:48:21.855Z,6.20
2022-12-18T13:51:07.621Z,6.10
2022-12-18T13:53:45.219Z,5.80
2022-12-18T13:56:19.090Z,5.80
2022-12-18T13:58:46.661Z,6.00
2022-12-18T14:01:24.430Z,5.80
2022-12-18T14:03:52.713Z,5.80
2022-12-18T14:06:19.983Z,5.90
2022-12-18T14:08:47.997Z,5.80
2022-12-18T14:11:23.435Z,5.80
2022-12-18T14:13:53.673Z,6.10
2022-12-18T14:16:20.878Z,5.80
2022-12-18T14:19:00.958Z,5.70
2022-12-18T14:21:38.866Z,5.70
2022-12-18T14:24:20.486Z,5.60
2022-12-18T14:26:50.782Z,5.40
2022-12-18T14:29:25.863Z,5.90
2022-12-18T14:32:17.751Z,5.60
2022-12-18T14:34:51.052Z,5.60
2022-12-18T14:37:28.491Z,5.60
2022-12-18T14:40:10.439Z,5.60
2022-12-18T14:45:53.002Z,5.60
2022-12-18T14:48:44.212Z,5.50
2022-12-18T14:51:33.541Z,5.60
2022-12-18T14:57:38.971Z,5.60
2022-12-18T15:00:23.258Z,5.70
2022-12-18T15:02:59.077Z,5.60
2022-12-18T15:05:29.968Z,5.60
2022-12-18T15:08:23.850Z,5.50
2022-12-18T15:10:54.033Z,5.50
2022-12-18T15:13:26.259Z,5.40
2022-12-18T15:16:01.855Z,5.40
2022-12-18T15:18:42.417Z,5.40
2022-12-18T15:21:12.667Z,5.40
2022-12-18T15:23:47.886Z,5.40
2022-12-18T15:26:18.225Z,5.30
2022-12-18T15:31:44.271Z,5.30
2022-12-18T15:34:25.412Z,5.30
2022-12-18T15:36:52.921Z,5.20
2022-12-18T15:39:49.469Z,5.20
2022-12-18T15:42:38.540Z,5.20
2022-12-18T15:45:06.764Z,5.20
2022-12-18T15:47:36.927Z,5.20
2022-12-18T15:50:04.556Z,5.10
2022-12-18T15:52:39.157Z,5.10
2022-12-18T15:55:34.077Z,5.10
2022-12-18T15:58:11.378Z,5.10
2022-12-18T16:00:41.720Z,5.10
2022-12-18T16:20:42.007Z,4.50
2022-12-18T16:23:11.610Z,4.90
2022-12-18T16:25:51.101Z,4.90
2022-12-18T16:28:48.559Z,4.90
2022-12-18T16:31:24.462Z,4.90
2022-12-18T16:34:56.195Z,5.00
2022-12-18T16:38:02.279Z,4.90
2022-12-18T16:41:00.915Z,4.90
2022-12-18T16:43:38.391Z,5.00
2022-12-18T16:50:20.538Z,5.00
2022-12-18T16:55:57.454Z,5.00
2022-12-18T16:58:27.254Z,5.00
2022-12-18T17:00:56.805Z,5.00
2022-12-18T17:03:25.539Z,5.00
2022-12-18T17:05:54.141Z,5.00
2022-12-18T17:08:22.299Z,4.90
2022-12-18T17:10:49.309Z,5.00
2022-12-18T17:13:21.458Z,4.90
2022-12-18T17:15:52.612Z,5.00
2022-12-18T17:18:21.963Z,5.00
2022-12-18T17:20:55.086Z,5.00
2022-12-18T17:23:26.164Z,5.00
2022-12-18T17:26:07.337Z,5.00
2022-12-18T17:28:47.229Z,5.00
2022-12-18T17:31:24.238Z,5.20
2022-12-18T17:34:09.727Z,4.80
2022-12-18T17:36:53.920Z,5.00
2022-12-18T17:39:25.922Z,4.60
2022-12-18T17:41:55.532Z,5.00
2022-12-18T17:44:23.319Z,5.00
2022-12-18T17:46:54.358Z,5.00
2022-12-18T17:49:22.568Z,4.90
2022-12-18T17:51:54.262Z,4.80
2022-12-18T17:54:42.888Z,4.90
2022-12-18T17:57:12.805Z,4.90
2022-12-18T17:59:59.944Z,4.90
2022-12-18T18:02:55.239Z,4.90
2022-12-18T18:05:24.164Z,4.90
2022-12-18T18:07:51.079Z,4.90
2022-12-18T18:10:19.476Z,5.00
2022-12-18T18:13:05.127Z,4.80
2022-12-18T18:15:33.372Z,4.80
2022-12-18T18:18:10.767Z,4.90
2022-12-18T18:20:44.332Z,4.80
2022-12-18T18:23:11.921Z,4.90
2022-12-18T18:25:42.753Z,4.90
2022-12-18T18:28:21.917Z,4.80
2022-12-18T18:30:49.241Z,4.80
2022-12-18T18:33:17.518Z,4.80
2022-12-18T18:35:54.368Z,4.90
2022-12-18T18:38:36.275Z,4.80
2022-12-18T18:41:42.244Z,4.80
2022-12-18T18:48:32.876Z,4.70
2022-12-18T18:54:36.302Z,4.80
2022-12-18T18:57:37.708Z,4.60
2022-12-18T19:00:29.384Z,4.90
2022-12-18T19:03:23.396Z,4.80
2022-12-18T19:07:03.592Z,5.10
2022-12-18T19:09:33.398Z,4.80
2022-12-18T19:12:19.035Z,4.90
2022-12-18T19:14:46.104Z,4.90
2022-12-18T19:17:13.095Z,4.90
2022-12-18T19:19:41.690Z,4.80
2022-12-18T19:22:09.712Z,4.80
2022-12-18T19:24:37.731Z,4.80
2022-12-18T19:27:05.709Z,4.80
2022-12-18T19:29:32.735Z,5.10
2022-12-18T19:32:01.997Z,4.90
2022-12-18T19:34:28.929Z,4.80
2022-12-18T19:36:59.687Z,4.80
2022-12-18T19:39:27.234Z,5.20
2022-12-18T19:41:54.646Z,4.90
2022-12-18T19:44:21.711Z,4.80
2022-12-18T19:47:00.561Z,4.90
2022-12-18T19:55:53.216Z,4.80
2022-12-18T19:58:39.008Z,4.90
2022-12-18T20:01:08.724Z,4.80
2022-12-18T20:03:51.840Z,4.80
2022-12-18T20:06:36.802Z,4.80
2022-12-18T20:09:28.197Z,5.10
2022-12-18T20:16:20.723Z,4.80
2022-12-18T20:37:48.852Z,4.70
2022-12-18T20:40:22.043Z,4.70
2022-12-18T20:42:48.966Z,4.70
2022-12-18T20:45:16.032Z,4.90
2022-12-18T20:47:42.879Z,4.80
2022-12-18T20:50:10.261Z,4.80
2022-12-18T20:52:40.307Z,4.80
2022-12-18T20:55:07.570Z,4.80
2022-12-18T20:57:34.542Z,4.80
2022-12-18T21:00:05.233Z,5.20
2022-12-18T21:02:32.349Z,4.80
2022-12-18T21:05:00.310Z,4.80
2022-12-18T21:07:27.518Z,4.80
2022-12-18T21:09:57.363Z,5.10
2022-12-18T21:12:42.816Z,4.90
2022-12-18T21:15:15.844Z,4.90
2022-12-18T21:17:44.442Z,4.80
2022-12-18T21:20:13.276Z,4.80
2022-12-18T21:22:44.723Z,4.80
2022-12-18T21:25:11.603Z,4.70
2022-12-18T21:27:38.487Z,4.70
2022-12-18T21:30:06.032Z,4.80
2022-12-18T21:32:33.663Z,4.80
2022-12-18T21:35:00.925Z,4.80
2022-12-18T21:37:27.928Z,4.80
2022-12-18T21:39:55.088Z,4.70
2022-12-18T21:42:40.531Z,4.70
2022-12-18T21:45:08.632Z,4.70
2022-12-18T21:47:35.704Z,4.70
2022-12-18T21:50:02.634Z,5.00
2022-12-18T21:52:32.598Z,4.70
2022-12-18T21:55:08.931Z,4.70
2022-12-18T21:57:39.364Z,4.60
2022-12-18T22:00:10.614Z,4.60
2022-12-18T22:02:39.917Z,4.60
2022-12-18T22:05:07.603Z,4.90
2022-12-18T22:07:34.828Z,4.60
2022-12-18T22:10:02.024Z,4.70
2022-12-18T22:12:43.771Z,4.60
2022-12-18T22:15:15.734Z,4.70
2022-12-18T22:17:48.491Z,4.70
2022-12-18T22:20:16.147Z,5.10
2022-12-18T22:22:43.992Z,4.70
2022-12-18T22:25:11.455Z,5.10
2022-12-18T22:27:38.431Z,4.70
2022-12-18T22:30:06.045Z,5.00
2022-12-18T22:32:35.113Z,4.70
2022-12-18T22:35:09.222Z,5.10
2022-12-18T22:37:37.614Z,5.00
2022-12-18T22:40:06.179Z,4.80
2022-12-18T22:42:35.265Z,4.70
2022-12-18T22:45:02.270Z,4.70
2022-12-18T22:47:30.405Z,4.70
2022-12-18T22:49:58.297Z,4.80
2022-12-18T22:52:26.056Z,4.70
2022-12-18T22:54:54.351Z,4.80
2022-12-18T22:57:22.859Z,4.80
2022-12-18T22:59:50.842Z,4.80
2022-12-18T23:02:18.777Z,4.90
2022-12-18T23:04:46.036Z,5.00
2022-12-18T23:07:13.507Z,5.00
2022-12-18T23:09:40.692Z,5.00
2022-12-18T23:12:19.382Z,4.80
2022-12-18T23:14:47.324Z,4.60
2022-12-18T23:17:14.355Z,4.80
2022-12-18T23:19:48.654Z,5.10
2022-12-18T23:22:16.692Z,4.60
2022-12-18T23:24:43.708Z,4.60
2022-12-18T23:27:12.243Z,4.60
2022-12-18T23:29:40.616Z,4.70
2022-12-18T23:32:08.084Z,4.70
2022-12-18T23:34:34.929Z,4.60
2022-12-18T23:37:03.768Z,4.70
2022-12-18T23:39:30.873Z,4.90
2022-12-18T23:41:58.908Z,4.70
2022-12-18T23:44:26.138Z,5.10
2022-12-18T23:46:53.637Z,4.70
2022-12-18T23:49:20.847Z,4.60
2022-12-18T23:51:48.265Z,4.70
2022-12-18T23:54:15.127Z,4.60
2022-12-18T23:56:42.135Z,4.60
2022-12-18T23:59:09.137Z,4.60
